Time,TemperatureF,DewpointF,PressureIn,WindDirection,WindDirectionDegrees,WindSpeedMPH,WindSpeedGustMPH,Humidity,HourlyPrecipIn,Conditions,Clouds,dailyrainin,SolarRadiationWatts/m^2,SoftwareType,DateUTC
2014-01-27 00:14:00,46.0,28.0,29.91,ENE,77,2.0,4.0,50,0.00,,,0.00,0,weatherlink.com 1.10,2014-01-27 07:14:00,
2014-01-27 00:29:00,45.9,28.0,29.91,NE,37,3.0,4.0,50,0.00,,,0.00,0,weatherlink.com 1.10,2014-01-27 07:29:00,
2014-01-27 00:44:00,45.8,28.0,29.90,NE,50,4.0,5.0,50,0.00,,,0.00,0,weatherlink.com 1.10,2014-01-27 07:44:00,
2014-01-27 00:59:00,45.5,28.0,29.90,NE,41,5.0,6.0,50,0.00,,,0.00,0,weatherlink.com 1.10,2014-01-27 07:59:00,
2014-01-27 01:14:00,45.8,28.0,29.90,NNE,33,5.0,6.0,50,0.00,,,0.00,0,weatherlink.com 1.10,2014-01-27 08:14:00,
2014-01-27 01:29:00,45.9,28.0,29.89,NNE,20,4.0,7.0,49,0.00,,,0.00,0,weatherlink.com 1.10,2014-01-27 08:29:00,
2014-01-27 01:44:00,44.0,26.0,29.89,NNE,24,6.0,7.0,50,0.00,,,0.00,0,weatherlink.com 1.10,2014-01-27 08:44:00,
2014-01-27 02:00:00,42.1,26.0,29.89,NNE,29,6.0,7.0,53,0.00,,,0.00,0,weatherlink.com 1.10,2014-01-27 09:00:00,
2014-01-27 02:15:00,41.7,26.0,29.89,NNE,13,3.0,8.0,54,0.00,,,0.00,0,weatherlink.com 1.10,2014-01-27 09:15:00,
2014-01-27 02:30:00,42.2,26.0,29.90,NNE,18,1.0,7.0,54,0.00,,,0.00,0,weatherlink.com 1.10,2014-01-27 09:30:00,
2014-01-27 02:45:00,42.1,26.0,29.90,SW,225,0.0,3.0,54,0.00,,,0.00,0,weatherlink.com 1.10,2014-01-27 09:45:00,
2014-01-27 03:00:00,41.5,26.0,29.90,NNW,344,1.0,3.0,54,0.00,,,0.00,0,weatherlink.com 1.10,2014-01-27 10:00:00,
2014-01-27 03:15:00,41.3,26.0,29.89,NNE,27,4.0,6.0,55,0.00,,,0.00,0,weatherlink.com 1.10,2014-01-27 10:15:00,
2014-01-27 03:30:00,41.5,26.0,29.90,NNE,28,1.0,4.0,54,0.00,,,0.00,0,weatherlink.com 1.10,2014-01-27 10:30:00,
2014-01-27 03:45:00,41.5,26.0,29.91,NNE,29,0.0,3.0,54,0.00,,,0.00,0,weatherlink.com 1.10,2014-01-27 10:45:00,
2014-01-27 04:00:00,41.6,26.0,29.90,NNE,21,5.0,5.0,54,0.00,,,0.00,0,weatherlink.com 1.10,2014-01-27 11:00:00,
2014-01-27 04:15:00,41.9,25.0,29.90,NNE,22,6.0,7.0,52,0.00,,,0.00,0,weatherlink.com 1.10,2014-01-27 11:15:00,
2014-01-27 04:30:00,40.3,24.0,29.90,NNE,25,5.0,10.0,53,0.00,,,0.00,0,weatherlink.com 1.10,2014-01-27 11:30:00,
2014-01-27 04:45:00,40.1,24.0,29.91,NE,47,8.0,12.0,54,0.00,,,0.00,0,weatherlink.com 1.10,2014-01-27 11:45:00,
2014-01-27 05:00:00,40.4,24.0,29.91,NNE,23,4.0,9.0,52,0.00,,,0.00,0,weatherlink.com 1.10,2014-01-27 12:00:00,
2014-01-27 05:15:00,39.8,24.0,29.92,North,8,5.0,8.0,54,0.00,,,0.00,0,weatherlink.com 1.10,2014-01-27 12:15:00,
2014-01-27 05:30:00,39.1,24.0,29.93,NE,39,6.0,7.0,55,0.00,,,0.00,0,weatherlink.com 1.10,2014-01-27 12:30:00,
2014-01-27 05:45:00,38.7,24.0,29.93,NNE,24,4.0,8.0,56,0.00,,,0.00,0,weatherlink.com 1.10,2014-01-27 12:45:00,
2014-01-27 06:00:00,39.0,24.0,29.93,NE,48,5.0,8.0,56,0.00,,,0.00,0,weatherlink.com 1.10,2014-01-27 13:00:00,
2014-01-27 06:15:00,40.4,25.0,29.92,NNE,19,4.0,7.0,54,0.00,,,0.00,0,weatherlink.com 1.10,2014-01-27 13:15:00,
2014-01-27 06:30:00,41.3,25.0,29.93,North,4,5.0,5.0,52,0.00,,,0.00,0,weatherlink.com 1.10,2014-01-27 13:30:00,
2014-01-27 06:45:00,41.9,23.0,29.95,NE,47,6.0,6.0,48,0.00,,,0.00,0,weatherlink.com 1.10,2014-01-27 13:45:00,
2014-01-27 07:00:00,42.3,22.0,29.96,NNE,20,2.0,6.0,44,0.00,,,0.00,0,weatherlink.com 1.10,2014-01-27 14:00:00,
2014-01-27 07:15:00,42.3,22.0,29.96,ENE,76,3.0,7.0,44,0.00,,,0.00,0,weatherlink.com 1.10,2014-01-27 14:15:00,
2014-01-27 07:30:00,42.2,21.0,29.97,ENE,60,3.0,5.0,43,0.00,,,0.00,40,weatherlink.com 1.10,2014-01-27 14:30:00,
2014-01-27 07:45:00,43.4,18.0,29.98,ENE,66,4.0,9.0,36,0.00,,,0.00,30,weatherlink.com 1.10,2014-01-27 14:45:00,
2014-01-27 08:00:00,44.4,19.0,29.98,NE,56,2.0,6.0,36,0.00,,,0.00,49,weatherlink.com 1.10,2014-01-27 15:00:00,
2014-01-27 08:16:00,44.9,26.0,29.98,ESE,102,2.0,2.0,47,0.00,,,0.00,46,weatherlink.com 1.10,2014-01-27 15:16:00,
2014-01-27 08:31:00,44.8,20.0,30.00,NNW,343,4.0,6.0,38,0.00,,,0.00,79,weatherlink.com 1.10,2014-01-27 15:31:00,
2014-01-27 08:46:00,44.5,19.0,29.99,North,355,2.0,4.0,36,0.00,,,0.00,100,weatherlink.com 1.10,2014-01-27 15:46:00,
2014-01-27 09:01:00,45.4,23.0,30.01,West,266,5.0,5.0,41,0.00,,,0.00,149,weatherlink.com 1.10,2014-01-27 16:01:00,
2014-01-27 09:16:00,46.4,22.0,30.01,WNW,295,8.0,8.0,39,0.00,,,0.00,146,weatherlink.com 1.10,2014-01-27 16:16:00,
2014-01-27 09:31:00,46.4,20.0,30.02,NW,325,3.0,7.0,35,0.00,,,0.00,118,weatherlink.com 1.10,2014-01-27 16:31:00,
2014-01-27 09:46:00,47.2,19.0,30.02,NNE,22,3.0,5.0,32,0.00,,,0.00,162,weatherlink.com 1.10,2014-01-27 16:46:00,
2014-01-27 10:01:00,47.5,18.0,30.02,NE,45,3.0,5.0,31,0.00,,,0.00,218,weatherlink.com 1.10,2014-01-27 17:01:00,
2014-01-27 10:16:00,48.4,18.0,30.02,NE,38,1.0,4.0,30,0.00,,,0.00,302,weatherlink.com 1.10,2014-01-27 17:16:00,
2014-01-27 10:31:00,50.1,20.0,30.02,SSE,164,2.0,4.0,30,0.00,,,0.00,336,weatherlink.com 1.10,2014-01-27 17:31:00,
2014-01-27 10:46:00,51.7,20.0,30.01,SW,225,1.0,5.0,29,0.00,,,0.00,643,weatherlink.com 1.10,2014-01-27 17:46:00,
2014-01-27 11:01:00,53.1,21.0,30.01,SSW,200,7.0,10.0,28,0.00,,,0.00,613,weatherlink.com 1.10,2014-01-27 18:01:00,
2014-01-27 11:16:00,53.5,23.0,30.00,SW,217,7.0,13.0,31,0.00,,,0.00,343,weatherlink.com 1.10,2014-01-27 18:16:00,
2014-01-27 11:31:00,53.1,25.0,29.99,South,189,9.0,15.0,34,0.00,,,0.00,315,weatherlink.com 1.10,2014-01-27 18:31:00,
2014-01-27 11:46:00,52.7,25.0,29.98,SSW,200,10.0,14.0,34,0.00,,,0.00,343,weatherlink.com 1.10,2014-01-27 18:46:00,
2014-01-27 12:01:00,52.2,24.0,29.96,South,175,12.0,19.0,34,0.00,,,0.00,357,weatherlink.com 1.10,2014-01-27 19:01:00,
2014-01-27 12:16:00,52.8,25.0,29.96,SSW,195,14.0,20.0,34,0.00,,,0.00,733,weatherlink.com 1.10,2014-01-27 19:16:00,
2014-01-27 12:46:00,54.1,25.0,29.93,SSE,160,13.0,19.0,32,0.00,,,0.00,619,weatherlink.com 1.10,2014-01-27 19:46:00,
2014-01-27 13:01:00,53.8,24.0,29.93,South,170,15.0,22.0,31,0.00,,,0.00,608,weatherlink.com 1.10,2014-01-27 20:01:00,
2014-01-27 13:16:00,54.5,25.0,29.91,SSW,203,15.0,22.0,32,0.00,,,0.00,599,weatherlink.com 1.10,2014-01-27 20:16:00,
2014-01-27 13:31:00,55.1,26.0,29.90,SSE,165,16.0,20.0,32,0.00,,,0.00,582,weatherlink.com 1.10,2014-01-27 20:31:00,
2014-01-27 13:46:00,55.1,25.0,29.90,South,191,14.0,18.0,31,0.00,,,0.00,598,weatherlink.com 1.10,2014-01-27 20:46:00,
2014-01-27 14:01:00,54.3,24.0,29.90,SSE,155,9.0,19.0,31,0.00,,,0.00,255,weatherlink.com 1.10,2014-01-27 21:01:00,
2014-01-27 14:16:00,53.8,24.0,29.90,South,189,10.0,19.0,32,0.00,,,0.00,236,weatherlink.com 1.10,2014-01-27 21:16:00,
2014-01-27 14:32:00,53.6,24.0,29.88,South,170,19.0,22.0,32,0.00,,,0.00,162,weatherlink.com 1.10,2014-01-27 21:32:00,
2014-01-27 14:47:00,54.6,24.0,29.88,SSE,166,18.0,22.0,31,0.00,,,0.00,450,weatherlink.com 1.10,2014-01-27 21:47:00,
2014-01-27 15:02:00,55.8,25.0,29.88,SSW,201,11.0,17.0,31,0.00,,,0.00,519,weatherlink.com 1.10,2014-01-27 22:02:00,
2014-01-27 15:17:00,57.1,25.0,29.88,SE,140,13.0,16.0,29,0.00,,,0.00,438,weatherlink.com 1.10,2014-01-27 22:17:00,
2014-01-27 15:33:00,57.3,25.0,29.88,South,169,8.0,14.0,29,0.00,,,0.00,325,weatherlink.com 1.10,2014-01-27 22:33:00,
2014-01-27 15:48:00,56.8,26.0,29.87,SSW,195,5.0,15.0,30,0.00,,,0.00,334,weatherlink.com 1.10,2014-01-27 22:48:00,
2014-01-27 16:17:00,55.8,25.0,29.87,SSE,158,11.0,17.0,31,0.00,,,0.00,49,weatherlink.com 1.10,2014-01-27 23:17:00,
2014-01-27 16:32:00,55.2,25.0,29.87,SSE,152,11.0,17.0,31,0.00,,,0.00,35,weatherlink.com 1.10,2014-01-27 23:32:00,
2014-01-27 16:47:00,54.6,25.0,29.88,SSE,159,11.0,15.0,32,0.00,,,0.00,28,weatherlink.com 1.10,2014-01-27 23:47:00,
2014-01-27 17:02:00,54.1,25.0,29.88,SSE,164,11.0,16.0,32,0.00,,,0.00,14,weatherlink.com 1.10,2014-01-28 00:02:00,
2014-01-27 17:17:00,53.7,24.0,29.89,SSE,155,5.0,14.0,32,0.00,,,0.00,12,weatherlink.com 1.10,2014-01-28 00:17:00,
2014-01-27 17:32:00,53.3,25.0,29.89,SE,128,8.0,11.0,33,0.00,,,0.00,5,weatherlink.com 1.10,2014-01-28 00:32:00,
2014-01-27 17:47:00,52.6,24.0,29.89,SE,124,7.0,10.0,33,0.00,,,0.00,0,weatherlink.com 1.10,2014-01-28 00:47:00,
2014-01-27 18:02:00,52.0,24.0,29.89,SE,132,6.0,11.0,34,0.00,,,0.00,0,weatherlink.com 1.10,2014-01-28 01:02:00,
2014-01-27 18:17:00,52.0,25.0,29.90,SSE,160,5.0,8.0,35,0.00,,,0.00,0,weatherlink.com 1.10,2014-01-28 01:17:00,
2014-01-27 18:33:00,51.7,25.0,29.90,SSE,152,6.0,10.0,35,0.00,,,0.00,0,weatherlink.com 1.10,2014-01-28 01:33:00,
2014-01-27 18:48:00,51.2,25.0,29.90,SSE,149,5.0,9.0,36,0.00,,,0.00,0,weatherlink.com 1.10,2014-01-28 01:48:00,
2014-01-27 19:03:00,51.0,25.0,29.90,South,175,5.0,9.0,37,0.00,,,0.00,0,weatherlink.com 1.10,2014-01-28 02:03:00,
2014-01-27 19:18:00,51.1,25.0,29.91,SSW,206,8.0,12.0,37,0.00,,,0.00,0,weatherlink.com 1.10,2014-01-28 02:18:00,
2014-01-27 19:33:00,50.9,25.0,29.91,SW,229,6.0,12.0,37,0.00,,,0.00,0,weatherlink.com 1.10,2014-01-28 02:33:00,
2014-01-27 19:48:00,50.2,25.0,29.91,SW,227,5.0,11.0,37,0.00,,,0.00,0,weatherlink.com 1.10,2014-01-28 02:48:00,
2014-01-27 20:03:00,49.0,24.0,29.91,SW,234,3.0,8.0,38,0.00,,,0.00,0,weatherlink.com 1.10,2014-01-28 03:03:00,
2014-01-27 20:18:00,48.3,25.0,29.92,SSW,210,1.0,5.0,40,0.00,,,0.00,0,weatherlink.com 1.10,2014-01-28 03:18:00,
2014-01-27 20:33:00,47.2,24.0,29.93,WNW,287,4.0,6.0,41,0.00,,,0.00,0,weatherlink.com 1.10,2014-01-28 03:33:00,
2014-01-27 20:48:00,46.6,24.0,29.93,West,266,2.0,6.0,41,0.00,,,0.00,0,weatherlink.com 1.10,2014-01-28 03:48:00,
2014-01-27 21:03:00,46.5,25.0,29.93,WSW,256,2.0,6.0,43,0.00,,,0.00,0,weatherlink.com 1.10,2014-01-28 04:03:00,
2014-01-27 21:18:00,46.5,25.0,29.93,SW,216,4.0,4.0,43,0.00,,,0.00,0,weatherlink.com 1.10,2014-01-28 04:18:00,
2014-01-27 21:33:00,46.6,26.0,29.93,SW,229,3.0,8.0,45,0.00,,,0.00,0,weatherlink.com 1.10,2014-01-28 04:33:00,
2014-01-27 21:48:00,46.9,27.0,29.93,SSW,203,5.0,10.0,46,0.00,,,0.00,0,weatherlink.com 1.10,2014-01-28 04:48:00,
2014-01-27 22:03:00,48.1,28.0,29.93,South,180,12.0,15.0,46,0.00,,,0.00,0,weatherlink.com 1.10,2014-01-28 05:03:00,
2014-01-27 22:18:00,47.8,28.0,29.94,South,175,10.0,14.0,47,0.00,,,0.00,0,weatherlink.com 1.10,2014-01-28 05:18:00,
2014-01-27 22:33:00,47.0,28.0,29.95,South,169,3.0,9.0,48,0.00,,,0.00,0,weatherlink.com 1.10,2014-01-28 05:33:00,
2014-01-27 22:48:00,46.6,29.0,29.95,SSE,156,4.0,11.0,50,0.00,,,0.00,0,weatherlink.com 1.10,2014-01-28 05:48:00,
2014-01-27 23:03:00,46.3,28.0,29.94,South,170,8.0,9.0,50,0.00,,,0.00,0,weatherlink.com 1.10,2014-01-28 06:03:00,
2014-01-27 23:18:00,45.9,29.0,29.95,South,175,5.0,8.0,51,0.00,,,0.00,0,weatherlink.com 1.10,2014-01-28 06:18:00,
2014-01-27 23:33:00,45.4,29.0,29.95,SSW,197,3.0,6.0,53,0.00,,,0.00,0,weatherlink.com 1.10,2014-01-28 06:33:00,
2014-01-27 23:48:00,45.2,29.0,29.95,South,175,4.0,9.0,54,0.00,,,0.00,0,weatherlink.com 1.10,2014-01-28 06:48:00,